Time;durP1;ratioP1;P1;durP2;ratioP2;P2;SDS_P1;SDS_P2;PMS_P1;PMS_P2;Temp;Humidity;BMP_temperature;BMP_pressure;BME280_temperature;BME280_humidity;BME280_pressure;Samples;Min_cycle;Max_cycle;Signal;HPM_P1;HPM_P2
2021/01/21 00:00:22;;;;;;;7.10;2.70;;;;;;;;;;4971337;28;21058;-79
2021/01/21 00:02:48;;;;;;;4.57;2.10;;;;;;;;;;4955338;28;20039;-79
2021/01/21 00:05:14;;;;;;;8.20;2.33;;;;;;;;;;4971913;28;20026;-79
2021/01/21 00:07:40;;;;;;;6.40;2.63;;;;;;;;;;4964349;28;20278;-80
2021/01/21 00:10:07;;;;;;;5.80;2.33;;;;;;;;;;4955694;28;20073;-80
2021/01/21 00:12:33;;;;;;;5.90;2.27;;;;;;;;;;4955656;28;20038;-80
2021/01/21 00:14:59;;;;;;;6.33;2.10;;;;;;;;;;4975426;28;20325;-80
2021/01/21 00:17:25;;;;;;;5.80;2.20;;;;;;;;;;4962308;28;20365;-80
2021/01/21 00:19:51;;;;;;;5.93;2.60;;;;;;;;;;4953569;28;20096;-81
2021/01/21 00:22:17;;;;;;;8.00;3.00;;;;;;;;;;4972759;28;20034;-80
2021/01/21 00:24:43;;;;;;;8.43;3.37;;;;;;;;;;4956052;28;20027;-79
2021/01/21 00:27:09;;;;;;;6.33;2.60;;;;;;;;;;4962222;28;21154;-80
2021/01/21 00:29:36;;;;;;;5.30;2.33;;;;;;;;;;4964539;28;20058;-79
2021/01/21 00:32:02;;;;;;;5.30;2.67;;;;;;;;;;4957319;28;20030;-80
2021/01/21 00:34:28;;;;;;;6.90;2.57;;;;;;;;;;4960342;28;20294;-79
2021/01/21 00:36:54;;;;;;;5.63;2.50;;;;;;;;;;4968873;28;20293;-80
2021/01/21 00:39:20;;;;;;;5.43;2.20;;;;;;;;;;4956481;28;20022;-80
2021/01/21 00:41:46;;;;;;;11.20;2.80;;;;;;;;;;4956733;28;20365;-80
2021/01/21 00:44:12;;;;;;;5.33;2.70;;;;;;;;;;4955569;28;20278;-80
2021/01/21 00:46:38;;;;;;;3.23;1.53;;;;;;;;;;4955686;28;20575;-80
2021/01/21 00:49:04;;;;;;;5.50;2.10;;;;;;;;;;4954578;28;20383;-79
2021/01/21 00:51:30;;;;;;;6.13;2.43;;;;;;;;;;4981805;28;20031;-79
2021/01/21 00:53:56;;;;;;;4.80;2.30;;;;;;;;;;4934073;29;20271;-80
2021/01/21 00:56:23;;;;;;;8.50;3.47;;;;;;;;;;4954774;28;20037;-80
2021/01/21 00:58:50;;;;;;;8.63;3.13;;;;;;;;;;4953391;28;20034;-79
2021/01/21 01:01:16;;;;;;;5.03;1.77;;;;;;;;;;4936303;28;20279;-80
2021/01/21 01:03:42;;;;;;;5.63;1.60;;;;;;;;;;4955527;28;20031;-79
2021/01/21 01:06:09;;;;;;;3.47;1.30;;;;;;;;;;4969615;28;20278;-79
2021/01/21 01:08:35;;;;;;;3.20;1.30;;;;;;;;;;4950936;28;20241;-79
2021/01/21 01:11:02;;;;;;;4.90;1.50;;;;;;;;;;4953079;29;20282;-80
2021/01/21 01:13:28;;;;;;;3.10;1.17;;;;;;;;;;4959364;28;20046;-80
2021/01/21 01:15:54;;;;;;;2.17;0.90;;;;;;;;;;4955194;28;20481;-80
2021/01/21 01:18:20;;;;;;;5.23;1.30;;;;;;;;;;4951935;28;20050;-80
2021/01/21 01:20:48;;;;;;;4.10;1.47;;;;;;;;;;4978801;28;20037;-79
2021/01/21 01:23:15;;;;;;;3.93;1.20;;;;;;;;;;4986375;28;20114;-80
2021/01/21 01:25:41;;;;;;;5.07;1.60;;;;;;;;;;4973499;28;20065;-79
2021/01/21 01:28:07;;;;;;;4.47;1.67;;;;;;;;;;4953368;28;20109;-80
2021/01/21 01:30:33;;;;;;;3.77;1.73;;;;;;;;;;4956839;28;20034;-80
2021/01/21 01:33:00;;;;;;;4.70;1.60;;;;;;;;;;4961809;28;20034;-80
2021/01/21 01:35:26;;;;;;;6.30;1.77;;;;;;;;;;4955994;28;20035;-80
2021/01/21 01:37:52;;;;;;;2.80;1.37;;;;;;;;;;4951226;29;20031;-80
2021/01/21 01:40:18;;;;;;;4.77;1.47;;;;;;;;;;4953432;28;20043;-79
2021/01/21 01:42:44;;;;;;;4.53;1.57;;;;;;;;;;4954091;28;20031;-79
2021/01/21 01:45:11;;;;;;;1.77;0.83;;;;;;;;;;4973495;28;20677;-79
2021/01/21 01:47:38;;;;;;;3.20;1.10;;;;;;;;;;4968851;28;20292;-80
2021/01/21 01:50:05;;;;;;;5.77;1.40;;;;;;;;;;4954770;28;20313;-80
2021/01/21 01:52:31;;;;;;;3.73;1.37;;;;;;;;;;4943060;28;20034;-80
2021/01/21 01:54:57;;;;;;;4.50;1.50;;;;;;;;;;4956535;28;20061;-80
2021/01/21 01:57:28;;;;;;;4.43;1.57;;;;;;;;;;4944175;28;20049;-80
2021/01/21 01:59:55;;;;;;;4.07;1.73;;;;;;;;;;4943553;28;20167;-79
2021/01/21 02:02:21;;;;;;;5.27;1.87;;;;;;;;;;4949850;28;20297;-79
2021/01/21 02:04:47;;;;;;;6.03;2.20;;;;;;;;;;4952629;28;20270;-78
2021/01/21 02:07:14;;;;;;;6.67;2.30;;;;;;;;;;4965417;28;20286;-80
2021/01/21 02:09:41;;;;;;;8.20;3.30;;;;;;;;;;4949841;28;20274;-79
2021/01/21 02:12:26;;;;;;;7.40;3.03;;;;;;;;;;4950488;28;20271;-80
2021/01/21 02:15:07;;;;;;;6.77;3.37;;;;;;;;;;4952190;28;20365;-79
2021/01/21 02:17:39;;;;;;;7.03;3.40;;;;;;;;;;4966867;28;20345;-80
2021/01/21 02:20:13;;;;;;;6.57;3.30;;;;;;;;;;4952700;28;20767;-80
2021/01/21 02:23:09;;;;;;;7.38;3.25;;;;;;;;;;4953211;28;20708;-80
2021/01/21 02:25:46;;;;;;;6.40;3.03;;;;;;;;;;4970238;28;20034;-79
2021/01/21 02:28:12;;;;;;;7.50;3.30;;;;;;;;;;4967909;28;20288;-80
2021/01/21 02:30:50;;;;;;;7.43;3.30;;;;;;;;;;4952543;28;20298;-80
2021/01/21 02:33:19;;;;;;;6.80;2.97;;;;;;;;;;4968732;28;20652;-80
2021/01/21 02:35:47;;;;;;;7.07;3.23;;;;;;;;;;4953146;28;20307;-79
2021/01/21 02:38:15;;;;;;;6.00;3.00;;;;;;;;;;4938743;29;20275;-80
2021/01/21 02:40:42;;;;;;;7.73;3.00;;;;;;;;;;4933108;29;20274;-80
2021/01/21 02:43:11;;;;;;;5.23;2.50;;;;;;;;;;4935732;29;20282;-80
2021/01/21 02:45:37;;;;;;;7.17;2.07;;;;;;;;;;4952811;28;20349;-80
2021/01/21 02:48:04;;;;;;;5.87;2.53;;;;;;;;;;4954881;28;20627;-80
2021/01/21 02:50:30;;;;;;;3.90;2.00;;;;;;;;;;4967065;29;20321;-79
2021/01/21 02:52:59;;;;;;;5.57;1.97;;;;;;;;;;4957443;28;20297;-79
2021/01/21 02:55:32;;;;;;;5.23;1.60;;;;;;;;;;4970786;28;20285;-80
2021/01/21 02:58:02;;;;;;;5.68;1.85;;;;;;;;;;4968830;28;20288;-79
2021/01/21 03:00:29;;;;;;;6.77;2.40;;;;;;;;;;4967500;28;20031;-79
2021/01/21 03:02:56;;;;;;;4.77;1.80;;;;;;;;;;4972466;28;20293;-80
2021/01/21 03:05:23;;;;;;;3.10;1.40;;;;;;;;;;4976547;28;20277;-80
2021/01/21 03:07:49;;;;;;;3.43;1.13;;;;;;;;;;4967410;28;20035;-80
2021/01/21 03:10:20;;;;;;;3.30;1.10;;;;;;;;;;4972824;28;20027;-79
2021/01/21 03:12:56;;;;;;;2.30;0.97;;;;;;;;;;4966285;28;20034;-80
2021/01/21 03:15:22;;;;;;;1.87;0.83;;;;;;;;;;4958476;28;20106;-80
2021/01/21 03:17:49;;;;;;;1.47;0.83;;;;;;;;;;4976156;28;20023;-80
2021/01/21 03:20:15;;;;;;;2.70;0.80;;;;;;;;;;4962509;28;20535;-80
2021/01/21 03:22:41;;;;;;;1.60;0.90;;;;;;;;;;4958376;28;20143;-80
2021/01/21 03:25:08;;;;;;;1.43;0.50;;;;;;;;;;4969479;28;20035;-80
2021/01/21 03:27:34;;;;;;;1.47;0.60;;;;;;;;;;4955001;29;20035;-80
2021/01/21 03:30:00;;;;;;;3.47;0.77;;;;;;;;;;4968227;28;20035;-80
2021/01/21 03:32:26;;;;;;;2.37;0.70;;;;;;;;;;4970368;28;20677;-80
2021/01/21 03:34:52;;;;;;;1.30;0.70;;;;;;;;;;4969976;28;20031;-80
2021/01/21 03:37:18;;;;;;;0.90;0.50;;;;;;;;;;4960545;28;20023;-80
2021/01/21 03:39:44;;;;;;;1.73;0.50;;;;;;;;;;4961647;28;20506;-80
2021/01/21 03:42:10;;;;;;;1.47;0.70;;;;;;;;;;4959784;28;20131;-80
2021/01/21 03:44:36;;;;;;;1.93;0.60;;;;;;;;;;4950880;28;20038;-80
2021/01/21 03:47:02;;;;;;;2.57;0.63;;;;;;;;;;4960903;28;20042;-80
2021/01/21 03:49:33;;;;;;;1.33;0.60;;;;;;;;;;4945720;28;20035;-79
2021/01/21 03:51:59;;;;;;;2.20;0.73;;;;;;;;;;4970750;28;20038;-80
2021/01/21 03:54:25;;;;;;;1.47;0.80;;;;;;;;;;4978628;28;20089;-80
2021/01/21 03:56:51;;;;;;;2.90;1.00;;;;;;;;;;4978726;28;20090;-80
2021/01/21 03:59:17;;;;;;;1.90;0.80;;;;;;;;;;4961526;28;20050;-80
2021/01/21 04:01:43;;;;;;;2.40;1.00;;;;;;;;;;4960498;28;20412;-80
2021/01/21 04:04:09;;;;;;;2.60;1.10;;;;;;;;;;4953726;28;20042;-79
2021/01/21 04:06:35;;;;;;;5.23;2.50;;;;;;;;;;4956842;28;20039;-79
2021/01/21 04:09:01;;;;;;;7.63;2.87;;;;;;;;;;4953701;28;20067;-80
2021/01/21 04:11:27;;;;;;;6.07;3.30;;;;;;;;;;4959581;28;20031;-80
2021/01/21 04:13:53;;;;;;;15.13;6.73;;;;;;;;;;4945642;29;20035;-79
2021/01/21 04:16:20;;;;;;;23.07;11.37;;;;;;;;;;4946142;29;20723;-79
2021/01/21 04:18:46;;;;;;;9.37;4.67;;;;;;;;;;4972927;28;20026;-79
2021/01/21 04:21:12;;;;;;;5.80;3.00;;;;;;;;;;4974737;28;20274;-79
2021/01/21 04:23:38;;;;;;;6.43;2.97;;;;;;;;;;4959086;28;20440;-79
2021/01/21 04:26:04;;;;;;;8.40;4.13;;;;;;;;;;4958789;28;20062;-79
2021/01/21 04:28:31;;;;;;;5.17;2.50;;;;;;;;;;4957420;28;20288;-79
2021/01/21 04:30:57;;;;;;;7.63;3.30;;;;;;;;;;4958290;28;20037;-79
2021/01/21 04:33:23;;;;;;;5.13;2.87;;;;;;;;;;4957401;28;20034;-79
2021/01/21 04:35:49;;;;;;;8.33;3.13;;;;;;;;;;4973659;28;20484;-79
2021/01/21 04:38:15;;;;;;;9.67;3.67;;;;;;;;;;4951180;29;20567;-79
2021/01/21 04:40:41;;;;;;;10.20;5.37;;;;;;;;;;4963924;28;20026;-79
2021/01/21 04:43:07;;;;;;;7.97;3.20;;;;;;;;;;4941002;28;20043;-79
2021/01/21 04:45:34;;;;;;;8.00;3.33;;;;;;;;;;4959337;28;20081;-79
2021/01/21 04:48:00;;;;;;;8.47;3.67;;;;;;;;;;4968878;28;20038;-78
2021/01/21 04:50:27;;;;;;;5.43;1.40;;;;;;;;;;4960130;28;20042;-77
2021/01/21 04:52:54;;;;;;;1.77;0.60;;;;;;;;;;4954920;28;20424;-79
2021/01/21 04:55:28;;;;;;;3.30;0.73;;;;;;;;;;4972770;28;20031;-79
2021/01/21 04:58:13;;;;;;;1.30;0.60;;;;;;;;;;4969122;28;20033;-79
2021/01/21 05:00:41;;;;;;;1.70;1.03;;;;;;;;;;4954936;28;20054;-79
2021/01/21 05:03:08;;;;;;;1.43;0.60;;;;;;;;;;4974256;28;20121;-77
2021/01/21 05:05:35;;;;;;;1.20;0.60;;;;;;;;;;4958784;28;20038;-77
2021/01/21 05:08:02;;;;;;;2.10;0.90;;;;;;;;;;4970115;28;20073;-79
2021/01/21 05:10:28;;;;;;;1.20;0.70;;;;;;;;;;4973324;28;20026;-78
2021/01/21 05:12:54;;;;;;;2.03;0.67;;;;;;;;;;4938648;28;20360;-79
2021/01/21 05:15:20;;;;;;;1.33;0.63;;;;;;;;;;4956823;28;20037;-79
2021/01/21 05:17:46;;;;;;;1.90;0.80;;;;;;;;;;4955732;28;20031;-77
2021/01/21 05:20:12;;;;;;;2.67;0.60;;;;;;;;;;4953391;28;20477;-79
2021/01/21 05:22:39;;;;;;;2.73;0.70;;;;;;;;;;4957711;28;20408;-79
2021/01/21 05:25:06;;;;;;;2.37;0.77;;;;;;;;;;4957429;28;20037;-77
2021/01/21 05:27:32;;;;;;;3.47;1.10;;;;;;;;;;4949035;28;20441;-77
2021/01/21 05:30:02;;;;;;;2.37;0.77;;;;;;;;;;4957558;28;20101;-78
2021/01/21 05:32:28;;;;;;;2.90;1.07;;;;;;;;;;4973199;28;20580;-78
2021/01/21 05:34:54;;;;;;;2.23;0.70;;;;;;;;;;4951734;28;20055;-79
2021/01/21 05:37:20;;;;;;;1.63;0.80;;;;;;;;;;4964992;28;20122;-78
2021/01/21 05:39:47;;;;;;;1.20;0.67;;;;;;;;;;4972316;28;20070;-78
2021/01/21 05:42:13;;;;;;;3.07;1.03;;;;;;;;;;4956886;28;20397;-78
2021/01/21 05:44:39;;;;;;;2.23;0.90;;;;;;;;;;4973721;28;20593;-79
2021/01/21 05:47:10;;;;;;;1.90;0.87;;;;;;;;;;4950998;28;20026;-78
2021/01/21 05:49:36;;;;;;;1.97;0.87;;;;;;;;;;4967168;28;20114;-78
2021/01/21 05:52:03;;;;;;;2.50;1.03;;;;;;;;;;4954604;28;20031;-78
2021/01/21 05:54:30;;;;;;;3.67;1.10;;;;;;;;;;4974210;28;20467;-78
2021/01/21 05:56:57;;;;;;;1.87;0.83;;;;;;;;;;4941475;28;20210;-78
2021/01/21 05:59:24;;;;;;;2.67;1.00;;;;;;;;;;4969193;28;20041;-79
2021/01/21 06:01:51;;;;;;;2.50;0.90;;;;;;;;;;4954273;28;20026;-78
2021/01/21 06:04:18;;;;;;;1.63;0.70;;;;;;;;;;4949166;28;20119;-78
2021/01/21 06:06:44;;;;;;;4.00;1.00;;;;;;;;;;4962239;28;20038;-78
2021/01/21 06:09:15;;;;;;;2.70;0.90;;;;;;;;;;4955713;28;20034;-78
2021/01/21 06:11:42;;;;;;;1.53;0.83;;;;;;;;;;4951934;28;20057;-77
2021/01/21 06:14:08;;;;;;;2.00;0.80;;;;;;;;;;4954986;28;20397;-77
2021/01/21 06:16:34;;;;;;;4.10;1.20;;;;;;;;;;4971745;28;20027;-77
2021/01/21 06:19:01;;;;;;;1.97;1.10;;;;;;;;;;4950425;29;20047;-78
2021/01/21 06:21:28;;;;;;;2.70;1.23;;;;;;;;;;4959910;28;20101;-80
2021/01/21 06:24:15;;;;;;;1.77;0.93;;;;;;;;;;4962154;28;20024;-80
2021/01/21 06:26:49;;;;;;;2.13;0.70;;;;;;;;;;4954751;28;20018;-80
2021/01/21 06:29:18;;;;;;;1.30;0.60;;;;;;;;;;4970020;28;20182;-80
2021/01/21 06:31:48;;;;;;;2.57;1.40;;;;;;;;;;4946252;28;20981;-80
2021/01/21 06:34:17;;;;;;;5.37;2.00;;;;;;;;;;4964843;28;20031;-80
2021/01/21 06:36:44;;;;;;;5.43;1.97;;;;;;;;;;4955199;28;20416;-80
2021/01/21 06:39:18;;;;;;;5.07;2.20;;;;;;;;;;4954550;28;20037;-80
2021/01/21 06:41:46;;;;;;;4.67;1.83;;;;;;;;;;4941825;29;20035;-80
2021/01/21 06:44:14;;;;;;;5.30;2.30;;;;;;;;;;4967571;28;20026;-80
2021/01/21 06:46:40;;;;;;;3.70;1.23;;;;;;;;;;4945823;28;20053;-82
2021/01/21 06:49:07;;;;;;;4.37;1.70;;;;;;;;;;4961574;28;20027;-81
2021/01/21 06:51:34;;;;;;;5.00;1.67;;;;;;;;;;4956190;28;20416;-81
2021/01/21 06:54:03;;;;;;;3.17;1.53;;;;;;;;;;4971649;28;20039;-81
2021/01/21 06:56:33;;;;;;;3.67;1.53;;;;;;;;;;4993456;28;20042;-81
2021/01/21 06:58:59;;;;;;;6.73;3.20;;;;;;;;;;4963873;28;20065;-80
2021/01/21 07:01:31;;;;;;;4.00;1.90;;;;;;;;;;4952809;28;20086;-79
2021/01/21 07:04:10;;;;;;;4.20;1.80;;;;;;;;;;4950403;28;20026;-79
2021/01/21 07:06:48;;;;;;;1.43;0.63;;;;;;;;;;4970276;28;20046;-79
2021/01/21 07:09:14;;;;;;;2.33;0.77;;;;;;;;;;4968388;28;20035;-77
2021/01/21 07:11:40;;;;;;;2.03;0.53;;;;;;;;;;4959147;28;20389;-77
2021/01/21 07:14:08;;;;;;;1.90;0.80;;;;;;;;;;4956314;28;20094;-77
2021/01/21 07:16:35;;;;;;;3.00;1.43;;;;;;;;;;4959119;28;20038;-78
2021/01/21 07:19:01;;;;;;;1.73;0.80;;;;;;;;;;4948024;28;20067;-78
2021/01/21 07:21:30;;;;;;;1.73;0.70;;;;;;;;;;4962518;28;20027;-78
2021/01/21 07:23:57;;;;;;;2.57;0.47;;;;;;;;;;4963955;28;20397;-80
2021/01/21 07:26:31;;;;;;;2.07;0.93;;;;;;;;;;4954025;28;20026;-77
2021/01/21 07:28:59;;;;;;;;;;;;;;;;;;4948291;28;20449;-78
2021/01/21 07:31:25;;;;;;;0.87;0.40;;;;;;;;;;4946210;29;19910;-79
2021/01/21 07:36:40;;;;;;;0.73;0.30;;;;;;;;;;4971238;28;20042;-79
2021/01/21 07:39:08;;;;;;;0.20;0.20;;;;;;;;;;4966760;28;20030;-80
2021/01/21 07:41:43;;;;;;;1.00;0.40;;;;;;;;;;4955351;28;20031;-80
2021/01/21 07:44:09;;;;;;;3.33;0.40;;;;;;;;;;4945154;28;20038;-80
2021/01/21 07:46:35;;;;;;;1.10;0.40;;;;;;;;;;4955578;28;20071;-81
2021/01/21 07:49:20;;;;;;;3.03;0.50;;;;;;;;;;4940153;28;20105;-80
2021/01/21 07:51:58;;;;;;;1.93;0.70;;;;;;;;;;4955462;28;20046;-81
2021/01/21 07:54:25;;;;;;;2.03;0.70;;;;;;;;;;4963575;28;20027;-80
2021/01/21 07:56:51;;;;;;;2.30;0.40;;;;;;;;;;4966220;28;20122;-80
2021/01/21 07:59:18;;;;;;;0.83;0.47;;;;;;;;;;4964459;28;20026;-80
2021/01/21 08:02:01;;;;;;;1.80;0.43;;;;;;;;;;4968348;28;20035;-80
2021/01/21 08:04:27;;;;;;;1.17;0.40;;;;;;;;;;4967415;28;20153;-79
2021/01/21 08:06:55;;;;;;;1.50;0.40;;;;;;;;;;4957053;28;20030;-80
2021/01/21 08:09:21;;;;;;;0.70;0.27;;;;;;;;;;4958953;28;20057;-80
2021/01/21 08:11:48;;;;;;;0.67;0.43;;;;;;;;;;4958948;28;20019;-79
2021/01/21 08:14:16;;;;;;;1.53;0.40;;;;;;;;;;4959699;28;20033;-80
2021/01/21 08:16:42;;;;;;;0.57;0.30;;;;;;;;;;4949942;28;20081;-79
2021/01/21 08:19:09;;;;;;;1.13;0.50;;;;;;;;;;4957895;28;20093;-79
2021/01/21 08:21:36;;;;;;;0.93;0.50;;;;;;;;;;4957355;28;20034;-79
2021/01/21 08:24:03;;;;;;;1.13;0.43;;;;;;;;;;4956279;28;20110;-79
2021/01/21 08:26:30;;;;;;;1.77;0.60;;;;;;;;;;4955362;29;20511;-79
2021/01/21 08:28:57;;;;;;;2.87;1.37;;;;;;;;;;4973925;28;20567;-79
2021/01/21 08:31:31;;;;;;;3.13;1.40;;;;;;;;;;4959805;28;20078;-80
2021/01/21 08:33:58;;;;;;;2.07;0.90;;;;;;;;;;4955321;28;20129;-79
2021/01/21 08:36:25;;;;;;;2.73;1.13;;;;;;;;;;4956085;28;20121;-79
2021/01/21 08:38:52;;;;;;;1.45;0.77;;;;;;;;;;4966543;28;20027;-79
2021/01/21 08:41:19;;;;;;;1.15;0.60;;;;;;;;;;4971276;28;20031;-80
2021/01/21 08:43:46;;;;;;;2.47;0.70;;;;;;;;;;4960573;28;20058;-79
2021/01/21 08:46:13;;;;;;;3.25;1.40;;;;;;;;;;4959914;28;20094;-79
2021/01/21 08:48:40;;;;;;;0.95;0.50;;;;;;;;;;4954184;29;20059;-79
2021/01/21 08:51:23;;;;;;;0.82;0.57;;;;;;;;;;4951350;28;20042;-79
2021/01/21 08:53:49;;;;;;;0.95;0.50;;;;;;;;;;4973698;28;20057;-79
2021/01/21 08:56:17;;;;;;;1.00;0.47;;;;;;;;;;4976972;28;20031;-80
2021/01/21 08:58:43;;;;;;;1.38;0.40;;;;;;;;;;4957002;28;20023;-79
2021/01/21 09:01:14;;;;;;;1.13;0.57;;;;;;;;;;4977584;28;20027;-79
2021/01/21 09:03:51;;;;;;;1.15;0.57;;;;;;;;;;4961264;28;20504;-80
2021/01/21 09:06:21;;;;;;;1.50;0.57;;;;;;;;;;4958292;28;20149;-80
2021/01/21 09:08:51;;;;;;;3.78;1.35;;;;;;;;;;4957595;28;20045;-79
2021/01/21 09:11:37;;;;;;;8.05;3.00;;;;;;;;;;4977564;28;20110;-79
2021/01/21 09:14:04;;;;;;;5.22;2.08;;;;;;;;;;4958755;28;20071;-79
2021/01/21 09:16:59;;;;;;;10.25;3.30;;;;;;;;;;4947616;28;20463;-79
2021/01/21 09:19:25;;;;;;;5.05;1.85;;;;;;;;;;4933967;28;20046;-79
2021/01/21 09:21:58;;;;;;;18.05;7.10;;;;;;;;;;4952479;28;20020;-79
2021/01/21 09:24:24;;;;;;;3.83;0.82;;;;;;;;;;4967468;28;20058;-79
2021/01/21 09:27:13;;;;;;;0.60;0.38;;;;;;;;;;4958309;28;20035;-79
2021/01/21 09:29:50;;;;;;;1.40;0.40;;;;;;;;;;4945748;29;20035;-79
2021/01/21 09:32:17;;;;;;;0.93;0.47;;;;;;;;;;4968829;28;20059;-78
2021/01/21 09:35:00;;;;;;;0.82;0.40;;;;;;;;;;4957244;28;20037;-79
2021/01/21 09:37:27;;;;;;;1.02;0.63;;;;;;;;;;4953066;29;20023;-78
2021/01/21 09:39:54;;;;;;;1.73;0.68;;;;;;;;;;4963810;28;20035;-79
2021/01/21 09:42:20;;;;;;;1.67;0.60;;;;;;;;;;4967221;28;20031;-78
2021/01/21 09:44:47;;;;;;;0.80;0.43;;;;;;;;;;4943171;29;20027;-78
2021/01/21 09:47:13;;;;;;;1.92;0.50;;;;;;;;;;4955293;28;20432;-77
2021/01/21 09:49:41;;;;;;;1.05;0.65;;;;;;;;;;4970258;28;20412;-78
2021/01/21 09:52:07;;;;;;;0.73;0.43;;;;;;;;;;4941267;28;20620;-78
2021/01/21 09:54:33;;;;;;;1.80;0.47;;;;;;;;;;4957311;28;20090;-78
2021/01/21 09:56:59;;;;;;;0.85;0.52;;;;;;;;;;4967711;28;20062;-78
2021/01/21 09:59:26;;;;;;;2.25;0.85;;;;;;;;;;4951763;28;20037;-80
2021/01/21 10:01:52;;;;;;;0.82;0.45;;;;;;;;;;4958655;28;20420;-78
2021/01/21 10:04:19;;;;;;;1.63;0.60;;;;;;;;;;4970244;28;20031;-78
2021/01/21 10:06:46;;;;;;;1.80;0.93;;;;;;;;;;4946664;28;20032;-79
2021/01/21 10:09:13;;;;;;;0.82;0.50;;;;;;;;;;4953487;28;20048;-79
2021/01/21 10:11:39;;;;;;;0.73;0.50;;;;;;;;;;4964473;28;20114;-78
2021/01/21 10:14:06;;;;;;;3.90;0.68;;;;;;;;;;4945665;28;20117;-78
2021/01/21 10:16:34;;;;;;;1.38;0.60;;;;;;;;;;4962919;28;20027;-79
2021/01/21 10:19:02;;;;;;;2.50;0.63;;;;;;;;;;4961848;28;20077;-79
2021/01/21 10:21:28;;;;;;;1.55;0.63;;;;;;;;;;4947127;28;20214;-80
2021/01/21 10:23:54;;;;;;;5.00;1.00;;;;;;;;;;4971550;28;20050;-80
2021/01/21 10:26:22;;;;;;;1.67;0.80;;;;;;;;;;4957897;28;20134;-79
2021/01/21 10:28:48;;;;;;;1.80;0.53;;;;;;;;;;4968688;28;20042;-79
2021/01/21 10:31:14;;;;;;;0.97;0.50;;;;;;;;;;4955751;28;20127;-80
2021/01/21 10:33:43;;;;;;;2.13;1.00;;;;;;;;;;4967217;28;20476;-79
2021/01/21 10:36:09;;;;;;;1.37;0.50;;;;;;;;;;4972704;28;20034;-80
2021/01/21 10:47:06;;;;;;;0.70;0.40;;;;;;;;;;4955826;28;20055;-80
2021/01/21 10:49:43;;;;;;;;;;;;;;;;;;;;;
2021/01/21 10:52:16;;;;;;;0.47;0.30;;;;;;;;;;4935737;29;20030;-80
2021/01/21 10:54:48;;;;;;;0.83;0.40;;;;;;;;;;4957265;29;20032;-81
2021/01/21 10:57:23;;;;;;;0.97;0.30;;;;;;;;;;4934481;29;20099;-80
2021/01/21 11:02:43;;;;;;;1.92;0.50;;;;;;;;;;4922742;29;20035;-80
2021/01/21 11:05:30;;;;;;;1.07;0.30;;;;;;;;;;4949743;29;20146;-80
2021/01/21 11:07:56;;;;;;;2.17;0.83;;;;;;;;;;4948484;28;20502;-81
2021/01/21 11:10:22;;;;;;;1.13;0.60;;;;;;;;;;4952604;29;20035;-82
2021/01/21 11:12:48;;;;;;;2.00;0.83;;;;;;;;;;4954443;28;20584;-81
2021/01/21 11:15:18;;;;;;;3.80;1.40;;;;;;;;;;4935021;29;20028;-83
2021/01/21 11:17:45;;;;;;;2.50;1.20;;;;;;;;;;4948046;28;20122;-81
2021/01/21 11:20:12;;;;;;;2.70;1.13;;;;;;;;;;4949954;28;20042;-81
2021/01/21 11:22:38;;;;;;;3.87;1.37;;;;;;;;;;4950174;29;20505;-83
2021/01/21 11:25:06;;;;;;;1.47;0.70;;;;;;;;;;4934432;29;20027;-82
2021/01/21 11:27:32;;;;;;;0.80;0.50;;;;;;;;;;4947918;28;20034;-83
2021/01/21 11:29:58;;;;;;;2.70;1.13;;;;;;;;;;4948017;29;20027;-83
2021/01/21 11:32:24;;;;;;;2.53;1.03;;;;;;;;;;4938038;29;20102;-82
2021/01/21 11:34:51;;;;;;;1.83;0.60;;;;;;;;;;4955063;29;20032;-84
2021/01/21 11:37:17;;;;;;;3.10;1.10;;;;;;;;;;4949928;28;20024;-83
2021/01/21 11:39:43;;;;;;;1.73;0.60;;;;;;;;;;4953987;28;20031;-82
2021/01/21 11:42:09;;;;;;;0.60;0.50;;;;;;;;;;4956315;29;20055;-83
2021/01/21 11:44:35;;;;;;;3.03;1.10;;;;;;;;;;4955112;29;20035;-84
2021/01/21 11:47:01;;;;;;;2.63;1.20;;;;;;;;;;4945188;29;20069;-84
2021/01/21 11:49:28;;;;;;;2.37;0.80;;;;;;;;;;4954597;29;20119;-84
2021/01/21 11:51:55;;;;;;;0.70;0.40;;;;;;;;;;4953079;29;20067;-83
2021/01/21 11:54:22;;;;;;;3.87;0.90;;;;;;;;;;4939882;29;20031;-84
2021/01/21 11:56:48;;;;;;;1.43;0.50;;;;;;;;;;4938558;29;20072;-84
2021/01/21 11:59:14;;;;;;;1.53;0.53;;;;;;;;;;4967323;28;20016;-82
2021/01/21 12:01:41;;;;;;;0.90;0.40;;;;;;;;;;4968669;29;20064;-83
2021/01/21 12:04:10;;;;;;;1.00;0.50;;;;;;;;;;4968490;29;20034;-84
2021/01/21 12:06:36;;;;;;;0.73;0.33;;;;;;;;;;4965342;28;20043;-85
2021/01/21 12:09:02;;;;;;;1.53;0.50;;;;;;;;;;4959494;28;20039;-83
2021/01/21 12:11:29;;;;;;;2.17;0.90;;;;;;;;;;4959787;28;20034;-83
2021/01/21 12:13:55;;;;;;;0.87;0.60;;;;;;;;;;4961364;28;20035;-82
2021/01/21 12:16:21;;;;;;;2.50;0.77;;;;;;;;;;4943834;29;20047;-83
2021/01/21 12:18:48;;;;;;;0.63;0.30;;;;;;;;;;4955137;28;20019;-82
2021/01/21 12:21:14;;;;;;;1.63;0.53;;;;;;;;;;4956041;29;20038;-83
2021/01/21 12:23:43;;;;;;;1.47;0.40;;;;;;;;;;4939434;29;20034;-82
2021/01/21 12:26:09;;;;;;;1.20;0.60;;;;;;;;;;4938376;29;20031;-82
2021/01/21 12:28:35;;;;;;;2.00;0.50;;;;;;;;;;4952667;28;20031;-82
2021/01/21 12:31:05;;;;;;;0.87;0.50;;;;;;;;;;4949874;29;20047;-82
2021/01/21 12:33:31;;;;;;;2.03;0.80;;;;;;;;;;4954795;29;20084;-82
2021/01/21 12:35:58;;;;;;;1.87;0.80;;;;;;;;;;4952268;29;20127;-82
2021/01/21 12:38:25;;;;;;;2.53;0.63;;;;;;;;;;4954282;28;20031;-81
2021/01/21 12:40:52;;;;;;;1.07;0.50;;;;;;;;;;4954385;29;20028;-82
2021/01/21 12:43:18;;;;;;;1.63;0.70;;;;;;;;;;4954152;29;20049;-82
2021/01/21 12:45:45;;;;;;;1.70;0.77;;;;;;;;;;4955405;28;20481;-80
2021/01/21 12:48:12;;;;;;;1.80;0.60;;;;;;;;;;4922970;29;20028;-80
2021/01/21 12:50:38;;;;;;;1.30;0.60;;;;;;;;;;4933724;29;20036;-81
2021/01/21 12:53:04;;;;;;;0.73;0.60;;;;;;;;;;4952758;29;20035;-82
2021/01/21 12:55:31;;;;;;;1.00;0.60;;;;;;;;;;4951394;28;20056;-82
2021/01/21 12:57:57;;;;;;;1.33;0.40;;;;;;;;;;4934477;28;20035;-81
2021/01/21 13:00:23;;;;;;;2.47;0.73;;;;;;;;;;4942674;28;20032;-78
2021/01/21 13:02:49;;;;;;;2.63;1.03;;;;;;;;;;4963539;28;20426;-81
2021/01/21 13:05:18;;;;;;;3.27;0.57;;;;;;;;;;4960331;28;20083;-80
2021/01/21 13:07:44;;;;;;;2.10;0.67;;;;;;;;;;4951807;28;20538;-81
2021/01/21 13:10:13;;;;;;;1.70;0.70;;;;;;;;;;4953399;29;20119;-82
2021/01/21 13:12:39;;;;;;;1.80;0.67;;;;;;;;;;4952337;29;20037;-81
2021/01/21 13:15:06;;;;;;;2.57;0.80;;;;;;;;;;4952890;29;20490;-81
2021/01/21 13:17:32;;;;;;;1.27;0.70;;;;;;;;;;4953749;28;20089;-81
2021/01/21 13:19:59;;;;;;;2.43;0.80;;;;;;;;;;4945803;29;20081;-82
2021/01/21 13:22:26;;;;;;;1.93;0.93;;;;;;;;;;4954467;29;20032;-79
2021/01/21 13:24:52;;;;;;;2.33;1.00;;;;;;;;;;4962614;28;20414;-81
2021/01/21 13:27:18;;;;;;;2.00;0.80;;;;;;;;;;4949201;28;20046;-81
2021/01/21 13:29:44;;;;;;;2.00;0.80;;;;;;;;;;4951546;29;20481;-80
2021/01/21 13:32:10;;;;;;;2.87;0.90;;;;;;;;;;4954365;28;20027;-80
2021/01/21 13:34:40;;;;;;;2.60;0.97;;;;;;;;;;4953940;29;20039;-79
2021/01/21 13:37:06;;;;;;;1.77;0.73;;;;;;;;;;4962468;28;20034;-81
2021/01/21 13:39:32;;;;;;;1.97;0.70;;;;;;;;;;4962407;28;20032;-81
2021/01/21 13:41:58;;;;;;;3.30;1.07;;;;;;;;;;4951338;29;20144;-80
2021/01/21 13:44:24;;;;;;;3.10;0.83;;;;;;;;;;4952341;29;20039;-81
2021/01/21 13:46:53;;;;;;;2.73;0.70;;;;;;;;;;4950944;29;20409;-79
2021/01/21 13:49:19;;;;;;;2.17;1.00;;;;;;;;;;4951141;28;20493;-80
2021/01/21 13:51:46;;;;;;;2.60;1.00;;;;;;;;;;4950936;28;20050;-77
2021/01/21 13:54:12;;;;;;;3.30;1.00;;;;;;;;;;4952053;29;20032;-79
2021/01/21 13:56:38;;;;;;;3.67;1.40;;;;;;;;;;4953997;28;20043;-78
2021/01/21 13:59:04;;;;;;;2.87;0.97;;;;;;;;;;4948658;28;20044;-78
2021/01/21 14:01:33;;;;;;;3.77;1.53;;;;;;;;;;4933368;29;20024;-78
2021/01/21 14:03:59;;;;;;;5.03;1.80;;;;;;;;;;4949417;29;20027;-78
2021/01/21 14:06:25;;;;;;;2.63;1.33;;;;;;;;;;4933877;29;20047;-78
2021/01/21 14:08:51;;;;;;;6.90;3.30;;;;;;;;;;4949019;28;20061;-78
2021/01/21 14:11:18;;;;;;;5.50;2.17;;;;;;;;;;4950816;29;20522;-80
2021/01/21 14:13:44;;;;;;;6.23;3.30;;;;;;;;;;4936288;29;20031;-78
2021/01/21 14:16:12;;;;;;;2.97;1.50;;;;;;;;;;4940305;29;20091;-80
2021/01/21 14:18:38;;;;;;;2.17;1.00;;;;;;;;;;4942638;28;20040;-80
2021/01/21 14:21:04;;;;;;;3.13;1.20;;;;;;;;;;4953195;29;20040;-78
2021/01/21 14:23:30;;;;;;;2.57;0.60;;;;;;;;;;4935575;29;20023;-78
2021/01/21 14:25:56;;;;;;;1.00;0.63;;;;;;;;;;4949614;28;20043;-79
2021/01/21 14:28:22;;;;;;;1.03;0.70;;;;;;;;;;4949318;28;20036;-78
2021/01/21 14:30:48;;;;;;;2.63;1.50;;;;;;;;;;4947991;29;20040;-78
2021/01/21 14:33:15;;;;;;;3.03;1.40;;;;;;;;;;4941385;29;20031;-78
2021/01/21 14:35:42;;;;;;;4.33;1.10;;;;;;;;;;4941018;29;20040;-79
2021/01/21 14:38:08;;;;;;;2.50;1.00;;;;;;;;;;4955455;28;20039;-80
2021/01/21 14:40:34;;;;;;;2.40;1.23;;;;;;;;;;4963467;28;20028;-79
2021/01/21 14:43:00;;;;;;;1.57;0.90;;;;;;;;;;4953327;29;20804;-78
2021/01/21 14:45:26;;;;;;;2.97;1.37;;;;;;;;;;4952862;29;20045;-79
2021/01/21 14:47:52;;;;;;;3.70;1.43;;;;;;;;;;4951387;28;20515;-78
2021/01/21 14:50:18;;;;;;;2.97;1.20;;;;;;;;;;4950207;29;20058;-79
2021/01/21 14:52:44;;;;;;;1.73;1.10;;;;;;;;;;4951859;29;20131;-79
2021/01/21 14:55:14;;;;;;;3.07;1.23;;;;;;;;;;4952591;29;20047;-78
2021/01/21 14:57:40;;;;;;;3.53;1.80;;;;;;;;;;4928257;29;20028;-79
2021/01/21 15:00:07;;;;;;;3.30;1.70;;;;;;;;;;4942317;29;20032;-78